FW6214 Weather Reports


Display with metric or nautical units.
time (UTC)temp
F
wind
direction
speed
MPH
gust
MPH
rain 1hr
in
rain 24hr
in
rain mn
in
humidity
%
barometer
mb
20210922161814 58 47 0.0 0.0 0.01 0.33 0.33 1 1016.1
20210922161315 59 31 0.0 0.0 0.01 0.33 0.33 1 1016.1
20210922160829 59 33 0.0 0.0 0.01 0.33 0.33 1 1016.2
20210922160312 59 63 0.0 3.0 0.01 0.33 0.33 1 1016.0
20210922155812 59 51 0.0 3.0 0.02 0.33 0.33 1 1015.9
20210922155321 60 41 0.0 3.0 0.03 0.33 0.33 1 1015.8
20210922154828 60 34 0.0 0.0 0.03 0.33 0.33 1 1015.9
20210922154310 60 38 0.0 0.0 0.03 0.33 0.33 1 1016.1
20210922153811 60 41 0.0 0.0 0.04 0.33 0.33 1 1016.2
20210922153310 61 51 0.0 0.0 0.05 0.33 0.33 1 1016.1
20210922152817 62 338 0.0 0.0 0.06 0.33 0.33 1 1016.2
20210922152319 62 283 0.0 0.0 0.07 0.33 0.33 1 1016.5
20210922151829 63 353 0.0 0.0 0.06 0.32 0.32 1 1016.5
20210922151309 63 337 0.0 0.0 0.08 0.32 0.32 1 1016.5
20210922150811 63 353 0.0 0.0 0.09 0.32 0.32 1 1016.5
20210922150312 63 326 0.0 0.0 0.09 0.32 0.32 1 1016.4
20210922145817 64 322 0.0 0.0 0.09 0.31 0.31 1 1016.4
20210922145315 64 301 0.0 0.0 0.09 0.30 0.30 1 1016.4
20210922144822 65 330 0.0 0.0 0.10 0.30 0.30 1 1016.3
20210922144330 66 320 0.0 1.0 0.12 0.30 0.30 1 1016.1
20210922143819 66 243 0.0 1.0 0.16 0.29 0.29 1 1016.0
20210922143321 66 238 0.0 0.0 0.15 0.28 0.28 1 1016.0
20210922142831 66 237 0.0 0.0 0.14 0.27 0.27 1 1016.1
20210922142315 66 235 0.0 1.0 0.13 0.26 0.26 1 1016.0
20210922141818 66 243 0.0 1.0 0.12 0.25 0.25 1 1016.1
20210922141322 66 247 0.0 0.0 0.11 0.24 0.24 1 1016.1
20210922140831 66 243 0.0 0.0 0.12 0.24 0.24 1 1016.1
20210922140316 66 243 0.0 0.0 0.11 0.23 0.23 1 1016.2
20210922135819 66 245 0.0 0.0 0.10 0.22 0.22 1 1016.1
20210922135322 66 245 0.0 0.0 0.10 0.21 0.21 1 1016.1
20210922134812 66 248 0.0 0.0 0.16 0.20 0.20 1 1016.1
20210922134319 66 251 0.0 0.0 0.14 0.18 0.18 1 1016.1
20210922133826 66 238 0.0 0.0 0.10 0.14 0.14 1 1016.1
20210922133310 66 245 0.0 0.0 0.09 0.13 0.13 1 1016.1
20210922132811 66 245 0.0 1.0 0.09 0.13 0.13 1 1016.1
20210922132322 66 208 0.0 1.0 0.09 0.13 0.13 1 1016.2
20210922131826 66 241 0.0 0.0 0.09 0.13 0.13 1 1016.2
20210922131310 66 238 0.0 0.0 0.08 0.12 0.12 1 1016.2
20210922130818 66 237 0.0 0.0 0.08 0.12 0.12 1 1016.2
20210922130321 66 225 0.0 0.0 0.08 0.12 0.12 1 1016.1
20210922125823 66 238 0.0 0.0 0.08 0.12 0.12 1 1016.3
20210922125332 67 245 0.0 0.0 0.06 0.10 0.10 1 1016.2
20210922124814 66 253 0.0 1.0 0.01 0.04 0.04 1 1016.1
20210922124318 66 240 0.0 1.0 0.01 0.04 0.04 1 1016.2
20210922123822 66 238 0.0 0.0 0.01 0.04 0.04 1 1016.2
20210922123331 66 252 0.0 0.0 0.01 0.04 0.04 1 1016.3
20210922122815 66 224 0.0 0.0 0.01 0.04 0.04 1 1016.4
20210922122326 66 247 0.0 0.0 0.01 0.04 0.04 1 1016.4
20210922121809 66 231 0.0 1.0 0.01 0.04 0.04 1 1016.4
20210922121313 66 245 0.0 1.0 0.01 0.04 0.04 1 1016.4
20210922120822 66 240 0.0 0.0 0.01 0.04 0.04 1 1016.4
20210922120324 66 243 0.0 0.0 0.02 0.04 0.04 1 1016.3
20210922115834 66 236 0.0 0.0 0.04 0.04 0.04 1 1016.3
20210922115316 66 237 0.0 0.0 0.04 0.04 0.04 1 1016.3
20210922114819 66 255 0.0 0.0 0.03 0.03 0.03 1 1016.4
20210922114321 66 248 0.0 0.0 0.03 0.03 0.03 1 1016.3
20210922113830 66 243 0.0 0.0 0.03 0.03 0.03 1 1016.4
20210922113313 66 248 0.0 0.0 0.03 0.03 0.03 1 1016.4
20210922112818 66 236 0.0 0.0 0.03 0.03 0.03 1 1016.3
20210922112320 66 243 0.0 0.0 0.03 0.03 0.03 1 1016.3
20210922111828 66 250 0.0 0.0 0.03 0.03 0.03 1 1016.3
20210922111313 66 236 0.0 0.0 0.03 0.03 0.03 1 1016.2
20210922110817 66 228 0.0 0.0 0.03 0.03 0.03 1 1016.2
20210922110325 66 233 0.0 0.0 0.01 0.01 0.01 1 1016.4
20210922105826 66 236 0.0 0.0 0.00 0.00 0.00 1 1016.3
20210922105309 66 238 0.0 0.0 0.00 0.00 0.00 1 1016.3
20210922104812 66 248 0.0 0.0 0.00 0.00 0.00 1 1016.3
20210922104320 66 234 0.0 0.0 0.00 0.00 0.00 1 1016.3
20210922103822 66 226 0.0 0.0 0.00 0.00 0.00 1 1016.4
20210922103309 66 239 0.0 0.0 0.00 0.00 0.00 1 1016.4
20210922102815 66 245 0.0 0.0 0.00 0.00 0.00 1 1016.3
20210922102324 66 247 0.0 0.0 0.00 0.00 0.00 1 1016.3
20210922101827 66 237 0.0 0.0 0.00 0.00 0.00 1 1016.4
20210922101309 66 246 0.0 0.0 0.00 0.00 0.00 1 1016.5
20210922100819 66 229 0.0 0.0 0.00 0.00 0.00 1 1016.5
20210922100319 66 225 0.0 0.0 0.00 0.00 0.00 1 1016.6
20210922095822 66 242 0.0 0.0 0.00 0.00 0.00 1 1016.7
20210922095334 66 262 0.0 0.0 0.00 0.00 0.00 1 1016.6
20210922094815 66 225 0.0 0.0 0.00 0.00 0.00 1 1016.7
20210922094319 66 245 0.0 0.0 0.00 0.00 0.00 1 1016.7
20210922093822 66 245 0.0 0.0 0.00 0.00 0.00 1 1016.8
20210922093308 66 253 0.0 0.0 0.00 0.00 0.00 1 1016.8
20210922092819 66 243 0.0 0.0 0.00 0.00 0.00 1 1016.8
20210922092324 66 243 0.0 0.0 0.00 0.00 0.00 1 1016.8
20210922091828 66 243 0.0 0.0 0.00 0.00 0.00 1 1016.9
20210922091310 66 247 0.0 0.0 0.00 0.00 0.00 1 1016.8
20210922090820 66 248 0.0 0.0 0.00 0.00 0.00 1 1016.8
20210922090325 66 248 0.0 0.0 0.00 0.00 0.00 1 1016.8
20210922085814 66 248 0.0 0.0 0.00 0.00 0.00 1 1016.9
20210922085322 66 252 0.0 0.0 0.00 0.00 0.00 1 1017.0
20210922084827 66 240 0.0 0.0 0.00 0.00 0.00 1 1017.1
20210922084328 66 227 0.0 0.0 0.00 0.00 0.00 1 1017.2
20210922083812 66 200 0.0 0.0 0.00 0.00 0.00 1 1017.3
20210922083321 66 248 0.0 0.0 0.00 0.00 0.00 1 1017.5
20210922082825 65 214 0.0 0.0 0.00 0.00 0.00 1 1017.5
20210922082315 65 257 0.0 0.0 0.00 0.00 0.00 1 1017.5
20210922081309 65 242 0.0 0.0 0.00 0.00 0.00 1 1017.4
20210922080817 66 258 0.0 0.0 0.00 0.00 0.00 1 1017.5
20210922080318 66 259 0.0 0.0 0.00 0.00 0.00 1 1017.5
20210922075819 66 259 0.0 0.0 0.00 0.00 0.00 1 1017.6
20210922075330 65 215 0.0 0.0 0.00 0.01 0.00 1 1017.6
20210922074812 65 122 0.0 0.0 0.00 0.01 0.00 1 1017.6
20210922074315 65 122 0.0 0.0 0.00 0.01 0.00 1 1017.6
20210922073829 65 124 0.0 0.0 0.00 0.01 0.00 1 1017.7
20210922073311 65 113 0.0 0.0 0.00 0.01 0.00 1 1017.9
20210922072812 65 114 0.0 0.0 0.00 0.01 0.00 1 1017.9
20210922072312 65 104 0.0 0.0 0.00 0.01 0.00 1 1018.0
20210922071821 65 84 0.0 0.0 0.00 0.01 0.00 1 1018.1
20210922071325 64 62 0.0 0.0 0.00 0.01 0.00 1 1018.1
20210922070810 64 60 0.0 0.0 0.00 0.01 0.00 1 1018.1
20210922070314 64 87 0.0 0.0 0.00 0.01 0.00 1 1018.0
20210922065828 64 65 0.0 0.0 0.00 0.01 0.00 1 1018.0
20210922065311 64 61 0.0 0.0 0.00 0.03 0.00 1 1018.2
20210922064812 64 91 0.0 0.0 0.00 0.03 0.00 1 1018.3
20210922064323 64 51 0.0 0.0 0.00 0.03 0.00 1 1018.4
20210922063825 64 74 0.0 0.0 0.00 0.03 0.00 1 1018.4
20210922063309 64 44 0.0 0.0 0.00 0.03 0.00 1 1018.5
20210922062812 64 61 0.0 0.0 0.00 0.03 0.00 1 1018.5
20210922062322 64 54 0.0 0.0 0.00 0.03 0.00 1 1018.6
20210922061825 64 95 0.0 0.0 0.00 0.03 0.00 1 1018.7
20210922061328 64 64 0.0 0.0 0.00 0.03 0.00 1 1018.7
20210922060810 64 138 0.0 0.0 0.00 0.03 0.00 1 1018.8
20210922060321 64 51 0.0 0.0 0.00 0.03 0.00 1 1018.8
20210922055823 64 63 0.0 0.0 0.00 0.03 0.00 1 1018.7
20210922055326 64 60 0.0 0.0 0.00 0.08 0.00 1 1018.8
20210922054828 64 56 0.0 0.0 0.00 0.08 0.00 1 1018.9
20210922053815 64 55 0.0 0.0 0.00 0.08 0.00 1 1019.1
20210922053322 64 108 0.0 0.0 0.00 0.08 0.00 1 1019.1
20210922052824 64 63 0.0 0.0 0.00 0.08 0.00 1 1019.2
20210922052309 64 58 0.0 0.0 0.00 0.08 0.00 1 1019.1
20210922051812 64 53 0.0 0.0 0.00 0.08 0.00 1 1019.2
20210922051322 64 54 0.0 0.0 0.00 0.08 0.00 1 1019.3
20210922050825 64 40 0.0 0.0 0.00 0.08 0.00 1 1019.5
20210922050327 64 63 0.0 0.0 0.00 0.08 0.00 1 1019.5
20210922045809 64 64 0.0 0.0 0.00 0.08 0.00 1 1019.5
20210922045321 64 71 0.0 1.0 0.00 0.13 0.00 1 1019.5
20210922044824 64 44 0.0 1.0 0.00 0.13 0.00 1 1019.6
20210922044333 64 65 0.0 1.0 0.00 0.13 0.00 1 1019.7
20210922043826 64 55 0.0 1.0 0.00 0.13 0.00 1 1019.6
20210922043313 64 65 0.0 0.0 0.00 0.13 0.00 1 1019.7
20210922042818 64 58 0.0 0.0 0.00 0.13 0.00 1 1019.8
20210922042329 64 65 0.0 0.0 0.00 0.13 0.00 1 1019.9
20210922041812 64 63 0.0 0.0 0.00 0.13 0.00 1 1019.9
20210922041316 64 60 0.0 0.0 0.00 0.13 0.00 1 1019.8
20210922040818 64 68 0.0 0.0 0.00 0.13 0.00 1 1020.0
20210922040325 64 49 0.0 0.0 0.00 0.13 0.00 1 1020.1
20210922035806 64 56 0.0 0.0 0.00 0.13 0.00 1 1020.2
20210922035311 64 141 0.0 0.0 0.00 0.22 0.00 1 1020.2
20210922034814 64 60 0.0 0.0 0.00 0.22 0.00 1 1020.2
20210922034331 65 58 0.0 0.0 0.00 0.22 0.00 1 1020.1
20210922033811 65 58 0.0 0.0 0.00 0.22 0.00 1 1020.1
20210922033312 65 69 0.0 0.0 0.00 0.22 0.00 1 1020.2
20210922032822 65 68 0.0 0.0 0.00 0.22 0.00 1 1020.2
20210922032322 65 53 0.0 0.0 0.00 0.22 0.00 1 1020.1
20210922031806 65 60 0.0 0.0 0.00 0.22 0.00 1 1020.1
20210922031307 65 94 0.0 0.0 0.00 0.22 0.00 1 1020.1
20210922030816 65 52 0.0 0.0 0.00 0.22 0.00 1 1020.1
20210922030319 65 49 0.0 0.0 0.00 0.22 0.00 1 1020.1
20210922025822 65 62 0.0 0.0 0.00 0.22 0.00 1 1020.2
20210922025330 65 49 0.0 0.0 0.00 0.25 0.00 1 1020.2
20210922024813 65 51 0.0 0.0 0.00 0.25 0.00 1 1020.4
20210922024316 65 65 0.0 0.0 0.00 0.25 0.00 1 1020.5
20210922023831 65 51 0.0 0.0 0.00 0.25 0.00 1 1020.4
20210922023312 65 54 0.0 0.0 0.00 0.25 0.00 1 1020.4
20210922022816 65 63 0.0 3.0 0.00 0.25 0.00 1 1020.4
20210922022320 65 79 0.0 3.0 0.00 0.25 0.00 1 1020.7
20210922021830 65 52 0.0 1.0 0.00 0.25 0.00 1 1020.4
20210922021313 65 68 0.0 1.0 0.00 0.25 0.00 1 1020.6
20210922020817 65 76 0.0 0.0 0.00 0.25 0.00 1 1020.5
20210922020319 65 71 0.0 0.0 0.00 0.25 0.00 1 1020.6
20210922015827 65 58 0.0 1.0 0.00 0.25 0.00 1 1020.6
20210922015314 66 71 0.0 4.0 0.00 0.34 0.00 1 1020.6
20210922014813 66 75 0.0 4.0 0.00 0.34 0.00 1 1020.5
20210922014321 66 59 0.0 1.0 0.00 0.34 0.00 1 1020.5
20210922013825 66 56 0.0 1.0 0.00 0.34 0.00 1 1020.4
20210922013326 66 68 0.0 1.0 0.00 0.34 0.00 1 1020.5
20210922012833 66 63 0.0 1.0 0.00 0.34 0.00 1 1020.4
20210922012317 66 64 0.0 1.0 0.00 0.34 0.00 1 1020.5
20210922011820 66 65 0.0 1.0 0.00 0.34 0.00 1 1020.3
20210922011324 66 55 0.0 1.0 0.00 0.34 0.00 1 1020.2
20210922010806 67 65 0.0 0.0 0.00 0.34 0.00 1 1020.2
20210922010316 67 60 0.0 0.0 0.00 0.34 0.00 1 1020.2
20210922005820 67 59 0.0 0.0 0.00 0.34 0.00 1 1020.3
20210922005323 67 66 0.0 0.0 0.00 0.60 0.00 1 1020.4
20210922004831 67 55 0.0 0.0 0.00 0.60 0.00 1 1020.3
20210922004316 67 60 0.0 0.0 0.00 0.60 0.00 1 1020.4
20210922003817 67 51 0.0 0.0 0.00 0.60 0.00 1 1020.2
20210922003326 67 59 0.0 0.0 0.00 0.60 0.00 1 1020.2
20210922002809 67 63 0.0 0.0 0.00 0.60 0.00 1 1020.2
20210922002314 67 52 0.0 0.0 0.00 0.60 0.00 1 1020.1
20210922001818 68 60 0.0 0.0 0.00 0.60 0.00 1 1020.0
20210922001327 68 66 0.0 0.0 0.00 0.60 0.00 1 1020.0
20210922000812 68 58 0.0 0.0 0.00 0.60 0.00 1 1020.1
20210922000316 68 63 0.0 0.0 0.00 0.60 0.00 3 1020.1
20210921235819 68 58 0.0 0.0 0.00 0.60 0.00 7 1020.0
20210921235327 68 64 0.0 0.0 0.00 0.85 0.00 11 1019.9
20210921234811 68 59 0.0 1.0 0.00 0.85 0.00 15 1020.0
20210921234317 68 53 0.0 1.0 0.00 0.85 0.00 17 1019.9
20210921233827 68 64 0.0 0.0 0.00 0.85 0.00 19 1019.8
20210921233309 68 58 0.0 0.0 0.00 0.85 0.00 20 1019.6
20210921232811 68 60 0.0 0.0 0.00 0.85 0.00 24 1019.5
20210921232316 69 65 0.0 0.0 0.00 0.85 0.00 26 1019.5
20210921231826 69 68 0.0 0.0 0.00 0.85 0.00 28 1019.5
20210921231310 69 61 0.0 0.0 0.00 0.85 0.00 29 1019.4
20210921230815 69 57 0.0 0.0 0.00 0.85 0.00 32 1019.4
20210921230316 69 65 0.0 0.0 0.00 0.85 0.00 35 1019.4
20210921225824 69 57 0.0 0.0 0.00 0.85 0.00 37 1019.4
20210921225307 69 55 0.0 0.0 0.00 0.94 0.00 40 1019.5
20210921224810 69 51 0.0 0.0 0.00 0.94 0.00 37 1019.5
20210921224313 69 64 0.0 0.0 0.00 0.94 0.00 42 1019.6
20210921223826 69 70 0.0 0.0 0.00 0.94 0.00 47 1019.6
20210921223307 69 56 0.0 0.0 0.00 0.94 0.00 52 1019.5
20210921222811 69 66 0.0 0.0 0.00 0.94 0.00 48 1019.5
20210921222323 70 56 0.0 0.0 0.00 0.94 0.00 48 1019.6
20210921221824 70 70 0.0 0.0 0.00 0.94 0.00 53 1019.6
20210921221327 70 68 0.0 0.0 0.00 0.94 0.00 59 1019.6
20210921220807 70 78 0.0 0.0 0.00 0.94 0.00 62 1019.8
20210921220318 70 79 0.0 0.0 0.00 0.94 0.00 57 1019.7
20210921215821 70 78 0.0 0.0 0.00 0.94 0.00 59 1019.9
20210921215322 70 83 0.0 0.0 0.00 0.99 0.00 63 1019.9
20210921214831 70 101 0.0 0.0 0.00 0.99 0.00 67 1019.9
20210921214354 70 49 0.0 0.0 0.00 0.99 0.00 70 1019.8
20210921213820 70 63 0.0 0.0 0.00 0.99 0.00 75 1019.8
20210921213323 71 71 0.0 0.0 0.00 0.99 0.00 72 1019.7
20210921212834 71 70 0.0 0.0 0.00 0.99 0.00 71 1019.7
20210921212314 71 85 0.0 0.0 0.00 0.99 0.00 69 1019.9
20210921211819 71 88 0.0 0.0 0.00 0.99 0.00 68 1019.8
20210921211323 71 90 0.0 0.0 0.00 0.99 0.00 70 1019.9
20210921210832 71 53 0.0 0.0 0.00 0.99 0.00 73 1019.8
20210921210316 71 44 0.0 0.0 0.00 0.99 0.00 74 1019.9
20210921205820 71 44 0.0 0.0 0.00 0.99 0.00 73 1019.9
20210921205321 71 44 0.0 0.0 0.00 1.13 0.00 73 1019.9
20210921204829 71 103 0.0 0.0 0.00 1.13 0.00 78 1019.9
20210921204315 71 89 0.0 0.0 0.00 1.13 0.00 78 1019.9
20210921203819 71 127 0.0 0.0 0.00 1.13 0.00 77 1019.9
20210921203327 72 130 0.0 0.0 0.00 1.13 0.00 76 1020.0
20210921202807 71 136 0.0 0.0 0.00 1.13 0.00 79 1020.0
20210921202308 71 140 0.0 0.0 0.00 1.13 0.00 70 1020.0
20210921201810 71 86 0.0 0.0 0.00 1.13 0.00 67 1019.9
20210921201319 71 54 0.0 0.0 0.00 1.13 0.00 68 1019.9
20210921200820 71 50 0.0 0.0 0.00 1.13 0.00 65 1020.1
20210921200323 70 101 0.0 0.0 0.00 1.13 0.00 53 1020.1
20210921195832 70 101 0.0 0.0 0.00 1.13 0.00 57 1020.2
20210921195315 70 136 0.0 0.0 0.00 1.22 0.00 58 1020.2
20210921194818 70 229 0.0 0.0 0.00 1.22 0.00 63 1020.3
20210921194321 71 229 0.0 0.0 0.00 1.22 0.00 65 1020.4
20210921193827 71 229 0.0 0.0 0.00 1.22 0.00 59 1020.5
20210921193309 71 229 0.0 0.0 0.00 1.22 0.00 64 1020.6
20210921192814 71 234 0.0 0.0 0.00 1.22 0.00 70 1020.6
20210921192322 71 119 0.0 0.0 0.00 1.22 0.00 70 1020.7
20210921191823 71 119 0.0 0.0 0.00 1.22 0.00 66 1020.7
20210921191325 71 120 0.0 0.0 0.00 1.22 0.00 65 1020.8
20210921190808 71 120 0.0 0.0 0.00 1.22 0.00 60 1020.8
20210921190316 71 144 0.0 0.0 0.00 1.22 0.00 60 1020.8
20210921185819 71 34 0.0 0.0 0.00 1.22 0.00 61 1020.9
20210921185319 71 34 0.0 0.0 0.00 1.42 0.00 61 1021.1
20210921184827 72 24 0.0 0.0 0.00 1.42 0.00 65 1021.1
20210921184311 72 251 0.0 0.0 0.00 1.42 0.00 64 1021.1
20210921183809 73 251 0.0 0.0 0.00 1.42 0.00 26 1021.2
20210921183310 71 246 0.0 0.0 0.00 1.42 0.00 37 1021.3
20210921182817 71 126 0.0 0.0 0.00 1.42 0.00 33 1021.6
20210921182319 70 125 0.0 0.0 0.00 1.42 0.00 29 1021.6
20210921181829 70 141 0.0 0.0 0.00 1.42 0.00 4 1021.8
20210921181309 69 141 0.0 0.0 0.00 1.42 0.00 3 1021.8
20210921180813 69 151 0.0 0.0 0.00 1.42 0.00 1 1021.9
20210921180315 69 151 0.0 0.0 0.00 1.42 0.00 1 1022.1
20210921175326 69 65 0.0 0.0 0.00 1.49 0.00 1 1022.3
20210921174809 69 65 0.0 0.0 0.00 1.49 0.00 1 1022.3
20210921174326 69 81 0.0 0.0 0.00 1.49 0.00 1 1022.3
20210921173810 69 79 0.0 0.0 0.00 1.49 0.00 1 1022.4
20210921173315 69 92 0.0 0.0 0.00 1.49 0.00 1 1022.5
20210921172818 69 54 0.0 0.0 0.00 1.49 0.00 1 1022.4
20210921172309 69 122 0.0 0.0 0.00 1.49 0.00 1 1022.4
20210921171816 69 122 0.0 0.0 0.00 1.49 0.00 1 1022.5
20210921171317 69 57 0.0 0.0 0.00 1.49 0.00 1 1022.5
20210921170827 68 56 0.0 0.0 0.00 1.49 0.00 1 1022.6
20210921170321 68 63 0.0 0.0 0.00 1.49 0.00 1 1022.7
20210921165823 68 64 0.0 0.0 0.00 1.49 0.00 1 1022.8
20210921165313 68 64 0.0 0.0 0.00 1.54 0.00 1 1022.7
20210921164814 67 63 0.0 0.0 0.00 1.54 0.00 1 1022.7
20210921164321 67 62 0.0 0.0 0.00 1.54 0.00 1 1022.7
20210921163823 68 77 0.0 0.0 0.00 1.54 0.00 1 1022.7
20210921163326 67 55 0.0 0.0 0.00 1.54 0.00 1 1022.8
20210921162809 67 73 0.0 0.0 0.00 1.54 0.00 1 1022.7
20210921162321 67 57 0.0 0.0 0.00 1.54 0.00 1 1022.7